createdAt,value
2019-02-28T00:02:26.915Z,77.52
2019-02-28T00:04:55.765Z,78.75
2019-02-28T00:07:24.519Z,78.35
2019-02-28T00:09:53.391Z,79.34
2019-02-28T00:12:22.255Z,80.36
2019-02-28T00:14:51.064Z,80.85
2019-02-28T00:17:19.870Z,82.07
2019-02-28T00:19:48.645Z,82.02
2019-02-28T00:22:17.454Z,82.22
2019-02-28T00:24:46.296Z,82.09
2019-02-28T00:27:15.094Z,81.79
2019-02-28T00:29:43.893Z,81.34
2019-02-28T00:32:12.690Z,81.73
2019-02-28T00:34:41.473Z,81.99
2019-02-28T00:37:10.269Z,82.51
2019-02-28T00:39:42.047Z,82.71
2019-02-28T00:42:10.864Z,82.59
2019-02-28T00:44:39.646Z,82.57
2019-02-28T00:47:08.427Z,83.28
2019-02-28T00:49:37.222Z,83.76
2019-02-28T00:52:06.086Z,84.16
2019-02-28T00:54:34.876Z,84.54
2019-02-28T00:57:03.661Z,84.78
2019-02-28T00:59:32.538Z,84.96
2019-02-28T01:02:01.540Z,84.48
2019-02-28T01:04:30.888Z,85.26
2019-02-28T01:06:59.746Z,85.30
2019-02-28T01:09:30.160Z,84.97
2019-02-28T01:11:59.051Z,84.90
2019-02-28T01:14:27.825Z,85.84
2019-02-28T01:16:56.627Z,84.95
2019-02-28T01:19:25.519Z,85.04
2019-02-28T01:21:55.432Z,84.43
2019-02-28T01:24:25.012Z,85.68
2019-02-28T01:26:53.850Z,85.68
2019-02-28T01:29:22.629Z,86.14
2019-02-28T01:31:51.493Z,86.26
2019-02-28T01:34:20.275Z,86.12
2019-02-28T01:36:49.594Z,86.28
2019-02-28T01:39:18.329Z,85.94
2019-02-28T01:41:47.163Z,86.83
2019-02-28T01:44:16.053Z,86.86
2019-02-28T01:46:44.856Z,86.46
2019-02-28T01:49:13.634Z,86.46
2019-02-28T01:51:42.427Z,86.72
2019-02-28T01:54:11.206Z,86.33
2019-02-28T01:56:40.108Z,85.89
2019-02-28T01:59:09.269Z,86.28
2019-02-28T02:01:38.196Z,85.69
2019-02-28T02:04:06.989Z,85.70
2019-02-28T02:06:36.006Z,85.50
2019-02-28T02:09:08.141Z,84.94
2019-02-28T02:11:36.784Z,84.55
2019-02-28T02:14:07.453Z,84.79
2019-02-28T02:16:36.225Z,86.20
2019-02-28T02:19:05.145Z,86.67
2019-02-28T02:21:34.873Z,87.60
2019-02-28T02:24:04.693Z,88.11
2019-02-28T02:26:33.547Z,87.95
2019-02-28T02:29:02.346Z,88.09
2019-02-28T02:31:31.194Z,87.78
2019-02-28T02:34:00.002Z,87.77
2019-02-28T02:36:28.787Z,87.81
2019-02-28T02:38:57.567Z,87.41
2019-02-28T02:41:26.346Z,86.86
2019-02-28T02:43:56.042Z,86.66
2019-02-28T02:46:24.836Z,86.57
2019-02-28T02:48:53.614Z,86.68
2019-02-28T02:51:22.389Z,86.66
2019-02-28T02:53:51.168Z,86.42
2019-02-28T02:56:20.169Z,86.37
2019-02-28T02:58:48.958Z,86.26
2019-02-28T03:01:17.761Z,86.53
2019-02-28T03:03:46.636Z,86.63
2019-02-28T03:06:15.447Z,86.50
2019-02-28T03:08:44.420Z,86.72
2019-02-28T03:11:13.355Z,86.32
2019-02-28T03:13:43.972Z,87.27
2019-02-28T03:16:12.911Z,89.09
2019-02-28T03:18:41.733Z,89.09
2019-02-28T03:21:15.067Z,89.64
2019-02-28T03:23:41.198Z,89.36
2019-02-28T03:26:09.969Z,89.67
2019-02-28T03:28:38.756Z,90.26
2019-02-28T03:31:14.219Z,90.52
2019-02-28T03:33:38.181Z,90.87
2019-02-28T03:36:07.347Z,91.20
2019-02-28T03:38:36.128Z,91.41
2019-02-28T03:41:05.063Z,91.14
2019-02-28T03:43:33.922Z,91.07
2019-02-28T03:46:06.481Z,91.10
2019-02-28T03:48:35.967Z,90.68
2019-02-28T03:51:03.718Z,90.74
2019-02-28T03:53:32.581Z,90.55
2019-02-28T03:56:01.420Z,90.59
2019-02-28T03:58:30.371Z,90.44
2019-02-28T04:00:59.228Z,90.12
2019-02-28T04:03:33.333Z,90.11
2019-02-28T04:06:03.370Z,90.46
2019-02-28T04:08:30.503Z,90.80
2019-02-28T04:10:59.525Z,91.20
2019-02-28T04:13:28.318Z,91.36
2019-02-28T04:16:08.325Z,91.45
2019-02-28T04:18:27.669Z,91.79
2019-02-28T04:20:56.668Z,91.76
2019-02-28T04:23:25.489Z,92.52
2019-02-28T04:25:56.998Z,92.40
2019-02-28T04:28:24.771Z,92.80
2019-02-28T04:30:53.671Z,93.33
2019-02-28T04:33:22.440Z,93.43
2019-02-28T04:35:51.349Z,94.15
2019-02-28T04:38:21.399Z,93.83
2019-02-28T04:40:50.192Z,93.54
2019-02-28T04:43:19.073Z,93.93
2019-02-28T04:45:47.879Z,93.89
2019-02-28T04:48:16.654Z,93.96
2019-02-28T04:50:45.441Z,94.39
2019-02-28T04:53:14.233Z,93.78
2019-02-28T04:55:43.123Z,92.96
2019-02-28T04:58:11.885Z,92.37
2019-02-28T05:00:40.743Z,92.48
2019-02-28T05:03:09.522Z,92.41
2019-02-28T05:05:38.299Z,93.13
2019-02-28T05:08:07.087Z,93.99
2019-02-28T05:10:35.854Z,93.93
2019-02-28T05:13:04.705Z,94.30
2019-02-28T05:15:37.394Z,95.15
2019-02-28T05:18:04.089Z,95.05
2019-02-28T05:20:32.955Z,95.19
2019-02-28T05:23:02.676Z,94.02
2019-02-28T05:25:31.688Z,93.16
2019-02-28T05:28:00.679Z,92.77
2019-02-28T05:30:29.460Z,92.53
2019-02-28T05:32:58.327Z,92.68
2019-02-28T05:35:27.132Z,93.05
2019-02-28T05:37:55.922Z,93.31
2019-02-28T05:40:24.698Z,92.98
2019-02-28T05:42:54.673Z,93.56
2019-02-28T05:45:24.089Z,93.56
2019-02-28T05:47:52.848Z,93.12
2019-02-28T05:50:21.614Z,93.48
2019-02-28T05:52:50.407Z,94.44
2019-02-28T05:55:24.431Z,94.21
2019-02-28T05:57:49.818Z,94.69
2019-02-28T06:00:19.999Z,94.85
2019-02-28T06:02:48.964Z,94.95
2019-02-28T06:05:17.755Z,96.01
2019-02-28T06:07:46.570Z,96.93
2019-02-28T06:10:15.542Z,97.78
2019-02-28T06:12:45.027Z,98.16
2019-02-28T06:15:15.426Z,98.16
2019-02-28T06:17:44.390Z,98.17
2019-02-28T06:20:16.203Z,98.09
2019-02-28T06:22:45.156Z,97.98
2019-02-28T06:25:22.655Z,97.34
2019-02-28T06:27:49.056Z,97.65
2019-02-28T06:30:16.026Z,96.43
2019-02-28T06:32:44.845Z,95.63
2019-02-28T06:35:17.784Z,95.39
2019-02-28T06:37:45.103Z,94.81
2019-02-28T06:40:14.253Z,94.50
2019-02-28T06:42:43.448Z,94.85
2019-02-28T06:45:14.452Z,95.00
2019-02-28T06:47:47.972Z,94.88
2019-02-28T06:50:14.169Z,94.52
2019-02-28T06:52:43.089Z,94.19
2019-02-28T06:55:15.559Z,93.99
2019-02-28T06:57:44.343Z,93.63
2019-02-28T07:00:14.152Z,93.42
2019-02-28T07:02:43.062Z,92.85
2019-02-28T07:05:12.101Z,92.77
2019-02-28T07:07:40.882Z,92.70
2019-02-28T07:10:12.697Z,92.29
2019-02-28T07:12:41.144Z,92.65
2019-02-28T07:15:10.180Z,92.33
2019-02-28T07:17:39.122Z,91.43
2019-02-28T07:20:10.152Z,89.66
2019-02-28T07:22:40.095Z,88.56
2019-02-28T07:25:09.444Z,88.22
2019-02-28T07:27:39.707Z,87.10
2019-02-28T07:30:17.269Z,85.85
2019-02-28T07:32:42.183Z,84.68
2019-02-28T07:35:11.128Z,84.94
2019-02-28T07:37:40.236Z,85.15
2019-02-28T07:40:15.561Z,84.95
2019-02-28T07:42:40.870Z,84.26
2019-02-28T07:45:12.137Z,82.93
2019-02-28T07:47:41.136Z,79.53
2019-02-28T07:50:10.855Z,80.62
2019-02-28T07:52:40.192Z,79.33
2019-02-28T07:55:10.116Z,78.25
2019-02-28T07:57:39.079Z,77.54
2019-02-28T08:00:16.753Z,75.99
2019-02-28T08:02:42.261Z,76.69
2019-02-28T08:05:12.230Z,76.06
2019-02-28T08:07:41.104Z,76.24
2019-02-28T08:10:12.735Z,76.07
2019-02-28T08:12:42.736Z,75.72
2019-02-28T08:15:14.967Z,76.04
2019-02-28T08:17:44.702Z,74.34
2019-02-28T08:20:14.261Z,73.92
2019-02-28T08:22:43.019Z,73.52
2019-02-28T08:25:12.562Z,73.48
2019-02-28T08:27:41.349Z,73.14
2019-02-28T08:30:16.349Z,71.09
2019-02-28T08:32:46.877Z,69.77
2019-02-28T08:35:15.098Z,69.26
2019-02-28T08:37:44.102Z,69.39
2019-02-28T08:40:17.252Z,70.00
2019-02-28T08:42:46.224Z,70.44
2019-02-28T08:45:15.391Z,68.12
2019-02-28T08:47:44.337Z,67.79
2019-02-28T08:50:19.129Z,67.40
2019-02-28T08:52:48.380Z,66.21
2019-02-28T08:55:17.256Z,65.48
2019-02-28T08:57:54.428Z,64.90
2019-02-28T09:00:18.065Z,64.11
2019-02-28T09:02:52.267Z,63.42
2019-02-28T09:05:17.617Z,62.63
2019-02-28T09:07:50.929Z,62.36
2019-02-28T09:10:18.897Z,62.17
2019-02-28T09:12:48.103Z,61.62
2019-02-28T09:15:17.487Z,60.51
2019-02-28T09:17:46.415Z,60.67
2019-02-28T09:20:15.488Z,60.02
2019-02-28T09:22:44.713Z,61.05
2019-02-28T09:25:14.835Z,59.86
2019-02-28T09:27:43.893Z,60.17
2019-02-28T09:30:19.062Z,59.30
2019-02-28T09:32:48.167Z,58.03
2019-02-28T09:35:17.792Z,58.90
2019-02-28T09:37:46.641Z,58.94
2019-02-28T09:40:15.801Z,59.07
2019-02-28T09:42:47.885Z,57.97
2019-02-28T09:45:17.271Z,58.06
2019-02-28T09:47:46.159Z,58.21
2019-02-28T09:50:19.400Z,58.02
2019-02-28T09:52:47.720Z,57.86
2019-02-28T09:55:16.582Z,57.82
2019-02-28T09:57:45.388Z,57.28
2019-02-28T10:00:16.523Z,56.25
2019-02-28T10:02:45.727Z,55.74
2019-02-28T10:05:14.897Z,56.04
2019-02-28T10:07:43.935Z,54.67
2019-02-28T10:10:17.450Z,54.44
2019-02-28T10:12:45.861Z,54.45
2019-02-28T10:15:16.547Z,54.13
2019-02-28T10:17:45.645Z,53.73
2019-02-28T10:20:16.902Z,54.27
2019-02-28T10:22:47.328Z,53.79
2019-02-28T10:25:17.033Z,54.06
2019-02-28T10:27:46.046Z,53.24
2019-02-28T10:30:17.239Z,52.92
2019-02-28T10:32:46.272Z,52.95
2019-02-28T10:35:15.451Z,52.37
2019-02-28T10:37:44.443Z,51.52
2019-02-28T10:40:17.767Z,52.03
2019-02-28T10:42:46.815Z,51.22
2019-02-28T10:45:15.985Z,51.05
2019-02-28T10:47:44.883Z,50.40
2019-02-28T10:50:18.682Z,49.68
2019-02-28T10:52:47.989Z,50.21
2019-02-28T10:55:19.370Z,50.27
2019-02-28T10:57:48.988Z,50.43
2019-02-28T11:00:32.879Z,49.89
2019-02-28T11:03:01.323Z,50.47
2019-02-28T11:05:31.801Z,51.44
2019-02-28T11:08:01.562Z,51.23
2019-02-28T11:10:35.523Z,51.22
2019-02-28T11:13:03.613Z,51.75
2019-02-28T11:15:32.534Z,52.19
2019-02-28T11:18:01.487Z,53.00
2019-02-28T11:20:30.438Z,53.21
2019-02-28T11:22:59.583Z,52.63
2019-02-28T11:25:34.591Z,51.87
2019-02-28T11:28:00.191Z,51.24
2019-02-28T11:30:29.231Z,50.82
2019-02-28T11:33:03.064Z,49.59
2019-02-28T11:35:29.425Z,49.17
2019-02-28T11:37:58.357Z,48.85
2019-02-28T11:40:29.201Z,47.79
2019-02-28T11:43:02.611Z,48.22
2019-02-28T11:45:30.311Z,48.10
2019-02-28T11:48:00.486Z,47.81
2019-02-28T11:50:29.540Z,47.71
2019-02-28T11:53:03.258Z,47.66
2019-02-28T11:55:28.989Z,46.70
2019-02-28T11:57:58.630Z,46.83
2019-02-28T12:00:29.020Z,46.92
2019-02-28T12:03:00.831Z,47.45
2019-02-28T12:05:29.095Z,47.96
2019-02-28T12:07:58.026Z,46.68
2019-02-28T12:10:27.893Z,46.74
2019-02-28T12:12:56.941Z,46.89
2019-02-28T12:15:26.783Z,46.20
2019-02-28T12:17:55.663Z,45.95
2019-02-28T12:20:26.561Z,45.17
2019-02-28T12:22:55.898Z,45.00
2019-02-28T12:25:25.722Z,45.51
2019-02-28T12:27:55.487Z,45.51
2019-02-28T12:30:26.235Z,44.69
2019-02-28T12:32:55.702Z,44.97
2019-02-28T12:35:24.577Z,45.19
2019-02-28T12:37:54.213Z,44.55
2019-02-28T12:40:25.781Z,44.87
2019-02-28T12:42:54.660Z,44.60
2019-02-28T12:45:26.294Z,44.21
2019-02-28T12:47:56.191Z,44.71
2019-02-28T12:50:29.461Z,44.71
2019-02-28T12:52:58.647Z,44.51
2019-02-28T12:55:27.534Z,45.35
2019-02-28T12:57:57.843Z,45.19
2019-02-28T13:00:29.826Z,45.06
2019-02-28T13:02:58.869Z,44.72
2019-02-28T13:05:27.748Z,45.27
2019-02-28T13:07:56.935Z,45.21
2019-02-28T13:10:28.010Z,45.36
2019-02-28T13:13:05.617Z,45.60
2019-02-28T13:15:27.925Z,45.29
2019-02-28T13:17:57.207Z,45.43
2019-02-28T13:20:32.184Z,44.92
2019-02-28T13:22:59.535Z,45.67
2019-02-28T13:25:28.134Z,45.23
2019-02-28T13:27:57.847Z,45.23
2019-02-28T13:30:27.723Z,44.40
2019-02-28T13:32:57.686Z,45.04
2019-02-28T13:35:28.382Z,44.49
2019-02-28T13:37:57.994Z,44.90
2019-02-28T13:40:28.015Z,44.20
2019-02-28T13:42:56.858Z,44.36
2019-02-28T13:45:26.468Z,43.78
2019-02-28T13:47:55.448Z,42.85
2019-02-28T13:50:26.818Z,43.57
2019-02-28T13:52:56.461Z,43.34
2019-02-28T13:55:25.885Z,43.12
2019-02-28T13:57:54.844Z,43.65
2019-02-28T14:00:25.987Z,42.52
2019-02-28T14:02:59.730Z,42.46
2019-02-28T14:05:29.901Z,43.07
2019-02-28T14:07:59.104Z,42.40
2019-02-28T14:10:29.655Z,43.32
2019-02-28T14:12:59.958Z,42.67
2019-02-28T14:15:31.832Z,42.87
2019-02-28T14:18:00.663Z,43.27
2019-02-28T14:20:29.462Z,43.14
2019-02-28T14:22:58.532Z,42.93
2019-02-28T14:25:27.397Z,42.87
2019-02-28T14:27:56.974Z,43.47
2019-02-28T14:30:27.480Z,42.63
2019-02-28T14:32:56.543Z,43.19
2019-02-28T14:35:26.319Z,42.98
2019-02-28T14:37:56.597Z,43.17
2019-02-28T14:40:25.723Z,42.29
2019-02-28T14:42:54.534Z,42.18
2019-02-28T14:45:23.406Z,42.25
2019-02-28T14:47:56.798Z,41.80
2019-02-28T14:50:23.413Z,42.37
2019-02-28T14:52:53.472Z,42.60
2019-02-28T14:55:22.508Z,42.60
2019-02-28T14:57:51.735Z,41.33
2019-02-28T15:00:24.624Z,41.26
2019-02-28T15:02:53.431Z,42.08
2019-02-28T15:05:22.373Z,42.53
2019-02-28T15:07:51.286Z,43.48
2019-02-28T15:10:20.464Z,44.81
2019-02-28T15:12:49.576Z,44.81
2019-02-28T15:15:19.112Z,45.07
2019-02-28T15:17:48.354Z,45.66
2019-02-28T15:20:17.643Z,45.66
2019-02-28T15:22:46.656Z,45.64
2019-02-28T15:25:18.654Z,45.83
2019-02-28T15:27:47.129Z,46.00
2019-02-28T15:30:18.520Z,46.06
2019-02-28T15:32:47.309Z,46.37
2019-02-28T15:35:17.409Z,46.24
2019-02-28T15:37:46.278Z,46.81
2019-02-28T15:40:17.471Z,47.38
2019-02-28T15:42:46.466Z,48.42
2019-02-28T15:45:15.537Z,48.75
2019-02-28T15:47:44.386Z,48.93
2019-02-28T15:50:16.300Z,49.30
2019-02-28T15:52:45.760Z,48.91
2019-02-28T15:55:15.255Z,49.48
2019-02-28T15:57:44.294Z,49.61
2019-02-28T16:00:22.146Z,49.63
2019-02-28T16:02:50.324Z,49.47
2019-02-28T16:05:19.600Z,48.55
2019-02-28T16:07:50.473Z,49.47
2019-02-28T16:10:21.092Z,47.79
2019-02-28T16:12:51.152Z,48.74
2019-02-28T16:15:20.008Z,48.90
2019-02-28T16:17:48.891Z,48.63
2019-02-28T16:20:17.963Z,47.85
2019-02-28T16:22:52.121Z,47.91
2019-02-28T16:25:20.337Z,47.86
2019-02-28T16:27:49.193Z,48.03
2019-02-28T16:30:18.445Z,47.65
2019-02-28T16:32:49.127Z,47.89
2019-02-28T16:35:17.974Z,47.73
2019-02-28T16:37:46.823Z,47.85
2019-02-28T16:40:16.989Z,47.62
2019-02-28T16:42:46.442Z,47.86
2019-02-28T16:45:27.887Z,47.72
2019-02-28T16:47:59.570Z,48.21
2019-02-28T16:50:27.598Z,48.60
2019-02-28T16:52:56.470Z,49.25
2019-02-28T16:55:27.426Z,50.73
2019-02-28T16:57:55.921Z,52.62
2019-02-28T17:00:24.803Z,53.56
2019-02-28T17:02:53.680Z,54.08
2019-02-28T17:05:26.698Z,54.38
2019-02-28T17:07:53.271Z,54.43
2019-02-28T17:10:26.043Z,54.64
2019-02-28T17:13:12.930Z,54.39
2019-02-28T17:16:04.322Z,54.23
2019-02-28T17:18:33.939Z,54.86
2019-02-28T17:21:02.808Z,55.36
2019-02-28T17:23:33.768Z,56.23
2019-02-28T17:26:02.277Z,56.68
2019-02-28T17:28:54.004Z,57.25
2019-02-28T17:31:57.120Z,57.63
2019-02-28T17:34:25.985Z,58.20
2019-02-28T17:36:54.844Z,58.95
2019-02-28T17:39:23.795Z,59.86
2019-02-28T17:41:52.727Z,60.74
2019-02-28T17:44:57.888Z,61.29
2019-02-28T17:48:12.705Z,61.77
2019-02-28T17:50:51.782Z,62.71
2019-02-28T17:53:45.639Z,63.47
2019-02-28T17:56:37.552Z,63.60
2019-02-28T17:59:44.188Z,64.14
2019-02-28T18:02:50.686Z,64.64
2019-02-28T18:05:33.813Z,64.94
2019-02-28T18:08:32.262Z,65.23
2019-02-28T18:11:34.110Z,65.31
2019-02-28T18:14:31.227Z,65.65
2019-02-28T18:17:35.195Z,65.59
2019-02-28T18:20:45.535Z,65.46
2019-02-28T18:23:27.894Z,65.33
2019-02-28T18:26:38.655Z,64.89
2019-02-28T18:29:34.205Z,65.23
2019-02-28T18:32:03.000Z,64.87
2019-02-28T18:34:34.054Z,64.87
2019-02-28T18:37:02.914Z,65.37
2019-02-28T18:39:31.681Z,64.85
2019-02-28T18:42:00.652Z,64.94
2019-02-28T18:44:29.516Z,65.27
2019-02-28T18:46:58.304Z,65.41
2019-02-28T18:49:29.413Z,65.24
2019-02-28T18:51:59.564Z,65.52
2019-02-28T18:54:28.091Z,65.28
2019-02-28T18:56:56.873Z,64.98
2019-02-28T18:59:25.649Z,65.83
2019-02-28T19:01:54.461Z,65.50
2019-02-28T19:04:23.315Z,65.75
2019-02-28T19:06:52.168Z,65.81
2019-02-28T19:09:22.784Z,65.51
2019-02-28T19:11:51.733Z,65.83
2019-02-28T19:14:20.571Z,66.33
2019-02-28T19:16:49.353Z,66.28
2019-02-28T19:19:18.131Z,66.08
2019-02-28T19:21:46.933Z,66.54
2019-02-28T19:24:15.713Z,66.81
2019-02-28T19:26:44.517Z,66.77
2019-02-28T19:29:13.935Z,67.21
2019-02-28T19:31:42.730Z,67.35
2019-02-28T19:34:11.503Z,67.52
2019-02-28T19:36:40.280Z,67.52
2019-02-28T19:39:09.070Z,67.80
2019-02-28T19:41:37.923Z,67.96
2019-02-28T19:44:06.685Z,68.64
2019-02-28T19:46:35.529Z,69.06
2019-02-28T19:49:04.422Z,69.61
2019-02-28T19:51:33.207Z,68.77
2019-02-28T19:54:02.068Z,68.68
2019-02-28T19:56:30.850Z,68.53
2019-02-28T19:58:59.640Z,68.51
2019-02-28T20:01:28.412Z,68.67
2019-02-28T20:03:57.211Z,68.45
2019-02-28T20:06:25.977Z,68.72
2019-02-28T20:08:54.754Z,69.14
2019-02-28T20:11:23.714Z,68.80
2019-02-28T20:13:52.514Z,68.96
2019-02-28T20:16:21.361Z,68.96
2019-02-28T20:18:50.472Z,68.78
2019-02-28T20:21:19.416Z,69.02
2019-02-28T20:23:48.355Z,68.42
2019-02-28T20:26:17.192Z,68.09
2019-02-28T20:28:46.943Z,66.85
2019-02-28T20:31:17.040Z,67.07
2019-02-28T20:33:46.956Z,67.02
2019-02-28T20:36:15.801Z,65.71
2019-02-28T20:38:44.615Z,65.90
2019-02-28T20:41:13.395Z,66.26
2019-02-28T20:43:42.193Z,66.78
2019-02-28T20:46:11.043Z,66.48
2019-02-28T20:48:39.921Z,66.54
2019-02-28T20:51:08.752Z,66.82
2019-02-28T20:53:37.535Z,66.46
2019-02-28T20:56:06.414Z,66.86
2019-02-28T20:58:35.202Z,66.67
2019-02-28T21:01:04.220Z,66.95
2019-02-28T21:03:33.056Z,67.27
2019-02-28T21:06:01.900Z,67.38
2019-02-28T21:08:30.764Z,67.74
2019-02-28T21:10:59.550Z,67.47
2019-02-28T21:13:28.341Z,67.66
2019-02-28T21:15:57.145Z,67.16
2019-02-28T21:18:25.997Z,67.56
2019-02-28T21:20:54.776Z,67.71
2019-02-28T21:23:23.628Z,67.53
2019-02-28T21:25:52.396Z,67.72
2019-02-28T21:28:21.291Z,67.56
2019-02-28T21:30:50.149Z,68.15
2019-02-28T21:33:18.933Z,68.00
2019-02-28T21:35:48.514Z,68.13
2019-02-28T21:38:17.358Z,68.86
2019-02-28T21:40:46.312Z,69.37
2019-02-28T21:43:15.182Z,69.77
2019-02-28T21:45:44.120Z,69.49
2019-02-28T21:48:12.976Z,69.73
2019-02-28T21:50:41.757Z,69.71
2019-02-28T21:53:10.568Z,69.07
2019-02-28T21:55:39.392Z,69.29
2019-02-28T21:58:08.182Z,69.05
2019-02-28T22:02:40.062Z,69.92
2019-02-28T22:05:10.600Z,69.83
2019-02-28T22:07:39.556Z,69.89
2019-02-28T22:10:09.537Z,70.39
2019-02-28T22:12:38.307Z,70.50
2019-02-28T22:15:10.534Z,70.39
2019-02-28T22:17:40.482Z,70.19
2019-02-28T22:20:11.084Z,70.08
2019-02-28T22:22:40.168Z,70.14
2019-02-28T22:25:10.231Z,70.18
2019-02-28T22:27:39.189Z,70.56
2019-02-28T22:30:29.099Z,70.71
2019-02-28T22:32:59.705Z,71.11
2019-02-28T22:35:34.596Z,70.78
2019-02-28T22:38:03.385Z,71.04
2019-02-28T22:40:32.232Z,71.57
2019-02-28T22:43:01.019Z,71.45
2019-02-28T22:45:29.807Z,71.22
2019-02-28T22:47:58.572Z,70.80
2019-02-28T22:50:27.347Z,71.57
2019-02-28T22:52:56.169Z,72.02
2019-02-28T22:55:25.052Z,71.74
2019-02-28T22:57:53.820Z,71.49
2019-02-28T23:01:07.128Z,71.88
2019-02-28T23:03:36.801Z,74.61
2019-02-28T23:06:06.237Z,75.63
2019-02-28T23:08:35.146Z,75.92
2019-02-28T23:11:04.303Z,76.85
2019-02-28T23:13:33.118Z,78.56
2019-02-28T23:16:01.961Z,80.00
2019-02-28T23:18:30.899Z,81.39
2019-02-28T23:20:59.672Z,81.91
2019-02-28T23:23:28.766Z,82.19
2019-02-28T23:26:08.827Z,82.67
2019-02-28T23:28:39.955Z,84.85
2019-02-28T23:32:20.796Z,86.80
2019-02-28T23:34:52.114Z,89.16
2019-02-28T23:37:21.637Z,91.66
2019-02-28T23:39:50.433Z,92.44
2019-02-28T23:42:19.261Z,94.76
2019-02-28T23:44:48.041Z,96.63
2019-02-28T23:47:16.811Z,97.92
2019-02-28T23:49:45.613Z,99.61
2019-02-28T23:52:14.438Z,100.00
2019-02-28T23:54:43.205Z,100.00
2019-02-28T23:57:12.011Z,100.00
2019-02-28T23:59:40.777Z,100.00
